Charleston Heights, South Carolina
Current Conditions -  °F | °C
As of 12:56 PM on Saturday 22 Nov 2014 (Local Time) from KCHS Reporting Station
Clear Clear  
Wind Chill: 64°   Ceiling: Unl
Heat Index: 64°   Visibility: 10mi
Dew Point: 46°   Wind: 10mph
Humidity: 52%   Direction: 110°ESE
Pressure: 30.42"   Gusts: NA
Location:  32.8713°N, 80.0388°W
Report Text: KCHS 221756Z 11009KT 10SM CLR 18/08 A3042 RMK AO2 SLP299 T01780078 10178 20017 58036 $
Loading
Personal Weather Stations






























Interactive Weather Map New forecast layout! Learn more

10-Day Weather Forecast

Advertisements
Track Severe Weather on mobile